sensor_id;sensor_type;location;lat;lon;timestamp;pressure;altitude;pressure_sealevel;temperature;humidity
16821;BME280;8527;49.740;6.604;2023-01-08T00:04:11;98914.53;;;9.49;100.00
16821;BME280;8527;49.740;6.604;2023-01-08T00:09:12;98916.81;;;9.52;100.00
16821;BME280;8527;49.740;6.604;2023-01-08T00:14:10;98913.53;;;9.50;100.00
16821;BME280;8527;49.740;6.604;2023-01-08T00:19:12;98917.19;;;9.49;100.00
16821;BME280;8527;49.740;6.604;2023-01-08T00:24:15;98913.06;;;9.47;100.00
16821;BME280;8527;49.740;6.604;2023-01-08T00:29:13;98908.97;;;9.44;100.00
16821;BME280;8527;49.740;6.604;2023-01-08T00:34:19;98913.63;;;9.42;100.00
16821;BME280;8527;49.740;6.604;2023-01-08T00:39:17;98897.91;;;9.40;100.00
16821;BME280;8527;49.740;6.604;2023-01-08T00:44:16;98893.63;;;9.39;100.00
16821;BME280;8527;49.740;6.604;2023-01-08T00:49:17;98895.28;;;9.40;100.00
16821;BME280;8527;49.740;6.604;2023-01-08T00:54:16;98902.38;;;9.40;100.00
16821;BME280;8527;49.740;6.604;2023-01-08T00:59:20;98892.53;;;9.34;100.00
16821;BME280;8527;49.740;6.604;2023-01-08T01:04:24;98890.25;;;9.31;100.00
16821;BME280;8527;49.740;6.604;2023-01-08T01:09:23;98882.13;;;9.32;100.00
16821;BME280;8527;49.740;6.604;2023-01-08T01:14:22;98878.38;;;9.26;100.00
16821;BME280;8527;49.740;6.604;2023-01-08T01:19:26;98876.34;;;9.28;100.00
16821;BME280;8527;49.740;6.604;2023-01-08T01:24:25;98876.94;;;9.24;100.00
16821;BME280;8527;49.740;6.604;2023-01-08T01:29:24;98875.28;;;9.23;100.00
16821;BME280;8527;49.740;6.604;2023-01-08T01:34:22;98874.44;;;9.22;100.00
16821;BME280;8527;49.740;6.604;2023-01-08T01:39:23;98864.69;;;9.23;100.00
16821;BME280;8527;49.740;6.604;2023-01-08T01:44:41;98861.06;;;9.24;100.00
16821;BME280;8527;49.740;6.604;2023-01-08T01:49:51;98864.41;;;9.18;100.00
16821;BME280;8527;49.740;6.604;2023-01-08T01:54:56;98863.22;;;9.20;100.00
16821;BME280;8527;49.740;6.604;2023-01-08T02:00:00;98867.06;;;9.18;100.00
16821;BME280;8527;49.740;6.604;2023-01-08T02:05:08;98860.75;;;9.19;100.00
16821;BME280;8527;49.740;6.604;2023-01-08T02:10:12;98862.59;;;9.18;100.00
16821;BME280;8527;49.740;6.604;2023-01-08T02:15:18;98856.63;;;9.16;100.00
16821;BME280;8527;49.740;6.604;2023-01-08T02:20:22;98847.63;;;9.10;100.00
16821;BME280;8527;49.740;6.604;2023-01-08T02:25:31;98840.03;;;9.07;100.00
16821;BME280;8527;49.740;6.604;2023-01-08T02:30:38;98837.84;;;9.11;100.00
16821;BME280;8527;49.740;6.604;2023-01-08T02:35:40;98833.31;;;9.05;100.00
16821;BME280;8527;49.740;6.604;2023-01-08T02:40:46;98818.41;;;9.04;100.00
16821;BME280;8527;49.740;6.604;2023-01-08T02:45:58;98812.56;;;9.08;100.00
16821;BME280;8527;49.740;6.604;2023-01-08T02:51:05;98795.53;;;9.11;100.00
16821;BME280;8527;49.740;6.604;2023-01-08T02:56:11;98792.63;;;9.06;100.00
16821;BME280;8527;49.740;6.604;2023-01-08T03:01:15;98796.81;;;9.00;100.00
16821;BME280;8527;49.740;6.604;2023-01-08T03:06:17;98774.19;;;8.97;100.00
16821;BME280;8527;49.740;6.604;2023-01-08T03:11:18;98775.97;;;8.97;100.00
16821;BME280;8527;49.740;6.604;2023-01-08T03:16:28;98784.66;;;8.91;100.00
16821;BME280;8527;49.740;6.604;2023-01-08T03:21:32;98789.94;;;8.91;100.00
16821;BME280;8527;49.740;6.604;2023-01-08T03:26:36;98784.28;;;8.94;100.00
16821;BME280;8527;49.740;6.604;2023-01-08T03:31:43;98775.97;;;8.97;100.00
16821;BME280;8527;49.740;6.604;2023-01-08T03:36:48;98765.97;;;8.92;100.00
16821;BME280;8527;49.740;6.604;2023-01-08T03:41:52;98769.63;;;8.91;100.00
16821;BME280;8527;49.740;6.604;2023-01-08T03:47:02;98751.09;;;8.91;100.00
16821;BME280;8527;49.740;6.604;2023-01-08T03:52:04;98756.75;;;8.88;100.00
16821;BME280;8527;49.740;6.604;2023-01-08T03:57:02;98750.81;;;8.86;100.00
16821;BME280;8527;49.740;6.604;2023-01-08T04:02:07;98745.69;;;8.84;100.00
16821;BME280;8527;49.740;6.604;2023-01-08T04:07:06;98734.94;;;8.86;100.00
16821;BME280;8527;49.740;6.604;2023-01-08T04:12:07;98743.44;;;8.81;100.00
16821;BME280;8527;49.740;6.604;2023-01-08T04:17:10;98744.53;;;8.87;100.00
16821;BME280;8527;49.740;6.604;2023-01-08T04:22:14;98742.09;;;8.85;100.00
16821;BME280;8527;49.740;6.604;2023-01-08T04:27:16;98741.06;;;8.86;100.00
16821;BME280;8527;49.740;6.604;2023-01-08T04:32:20;98740.69;;;8.90;100.00
16821;BME280;8527;49.740;6.604;2023-01-08T04:37:18;98734.16;;;8.85;100.00
16821;BME280;8527;49.740;6.604;2023-01-08T04:42:20;98744.16;;;8.90;100.00
16821;BME280;8527;49.740;6.604;2023-01-08T04:47:30;98735.97;;;8.85;100.00
16821;BME280;8527;49.740;6.604;2023-01-08T04:52:31;98732.31;;;8.86;100.00
16821;BME280;8527;49.740;6.604;2023-01-08T04:57:29;98722.19;;;8.90;100.00
16821;BME280;8527;49.740;6.604;2023-01-08T05:02:33;98731.13;;;8.89;100.00
16821;BME280;8527;49.740;6.604;2023-01-08T05:07:32;98714.16;;;8.83;100.00
16821;BME280;8527;49.740;6.604;2023-01-08T05:12:30;98711.53;;;8.83;100.00
16821;BME280;8527;49.740;6.604;2023-01-08T05:17:29;98706.41;;;8.81;100.00
16821;BME280;8527;49.740;6.604;2023-01-08T05:22:33;98706.59;;;8.80;100.00
16821;BME280;8527;49.740;6.604;2023-01-08T05:27:32;98681.81;;;8.81;100.00
16821;BME280;8527;49.740;6.604;2023-01-08T05:32:36;98683.06;;;8.85;100.00
16821;BME280;8527;49.740;6.604;2023-01-08T05:37:37;98694.28;;;8.87;100.00
16821;BME280;8527;49.740;6.604;2023-01-08T05:42:35;98688.72;;;8.82;100.00
16821;BME280;8527;49.740;6.604;2023-01-08T05:47:35;98695.81;;;8.81;100.00
16821;BME280;8527;49.740;6.604;2023-01-08T05:52:41;98703.59;;;8.83;100.00
16821;BME280;8527;49.740;6.604;2023-01-08T05:57:40;98720.16;;;8.77;100.00
16821;BME280;8527;49.740;6.604;2023-01-08T06:02:45;98725.66;;;8.75;100.00
16821;BME280;8527;49.740;6.604;2023-01-08T06:07:46;98720.63;;;8.80;100.00
16821;BME280;8527;49.740;6.604;2023-01-08T06:12:45;98723.75;;;8.84;100.00
16821;BME280;8527;49.740;6.604;2023-01-08T06:17:44;98732.03;;;8.81;100.00
16821;BME280;8527;49.740;6.604;2023-01-08T06:22:46;98723.47;;;8.79;100.00
16821;BME280;8527;49.740;6.604;2023-01-08T06:27:49;98722.66;;;8.78;100.00
16821;BME280;8527;49.740;6.604;2023-01-08T06:32:48;98723.47;;;8.79;100.00
16821;BME280;8527;49.740;6.604;2023-01-08T06:37:52;98712.44;;;8.75;100.00
16821;BME280;8527;49.740;6.604;2023-01-08T06:42:51;98705.94;;;8.78;100.00
16821;BME280;8527;49.740;6.604;2023-01-08T06:47:53;98709.69;;;8.68;100.00
16821;BME280;8527;49.740;6.604;2023-01-08T06:52:55;98698.59;;;8.73;100.00
16821;BME280;8527;49.740;6.604;2023-01-08T06:57:57;98707.50;;;8.72;100.00
16821;BME280;8527;49.740;6.604;2023-01-08T07:02:58;98718.63;;;8.67;100.00
16821;BME280;8527;49.740;6.604;2023-01-08T07:08:02;98724.09;;;8.66;100.00
16821;BME280;8527;49.740;6.604;2023-01-08T07:13:03;98725.28;;;8.63;100.00
16821;BME280;8527;49.740;6.604;2023-01-08T07:18:03;98717.34;;;8.63;100.00
16821;BME280;8527;49.740;6.604;2023-01-08T07:23:09;98731.56;;;8.62;100.00
16821;BME280;8527;49.740;6.604;2023-01-08T07:28:12;98723.47;;;8.64;100.00
16821;BME280;8527;49.740;6.604;2023-01-08T07:33:11;98725.81;;;8.58;100.00
16821;BME280;8527;49.740;6.604;2023-01-08T07:38:12;98728.03;;;8.55;100.00
16821;BME280;8527;49.740;6.604;2023-01-08T07:43:13;98727.56;;;8.51;100.00
16821;BME280;8527;49.740;6.604;2023-01-08T07:48:14;98731.00;;;8.52;100.00
16821;BME280;8527;49.740;6.604;2023-01-08T07:53:18;98733.47;;;8.53;100.00
16821;BME280;8527;49.740;6.604;2023-01-08T07:58:18;98733.84;;;8.50;100.00
16821;BME280;8527;49.740;6.604;2023-01-08T08:03:17;98745.06;;;8.52;100.00
16821;BME280;8527;49.740;6.604;2023-01-08T08:08:18;98736.13;;;8.53;100.00
16821;BME280;8527;49.740;6.604;2023-01-08T08:13:20;98735.75;;;8.56;100.00
16821;BME280;8527;49.740;6.604;2023-01-08T08:18:21;98728.03;;;8.55;100.00
16821;BME280;8527;49.740;6.604;2023-01-08T08:23:22;98726.19;;;8.55;100.00
16821;BME280;8527;49.740;6.604;2023-01-08T08:28:21;98720.91;;;8.55;100.00
16821;BME280;8527;49.740;6.604;2023-01-08T08:33:19;98728.19;;;8.53;100.00
16821;BME280;8527;49.740;6.604;2023-01-08T08:38:18;98709.59;;;8.62;100.00
16821;BME280;8527;49.740;6.604;2023-01-08T08:43:18;98703.84;;;8.58;100.00
16821;BME280;8527;49.740;6.604;2023-01-08T08:48:27;98700.75;;;8.54;100.00
16821;BME280;8527;49.740;6.604;2023-01-08T08:53:25;98699.94;;;8.54;100.00
16821;BME280;8527;49.740;6.604;2023-01-08T08:58:26;98707.88;;;8.54;100.00
16821;BME280;8527;49.740;6.604;2023-01-08T09:03:25;98705.56;;;8.51;100.00
16821;BME280;8527;49.740;6.604;2023-01-08T09:08:24;98693.13;;;8.60;100.00
16821;BME280;8527;49.740;6.604;2023-01-08T09:13:22;98698.19;;;8.61;100.00
16821;BME280;8527;49.740;6.604;2023-01-08T09:18:23;98698.94;;;8.70;100.00
16821;BME280;8527;49.740;6.604;2023-01-08T09:23:25;98693.94;;;8.75;100.00
16821;BME280;8527;49.740;6.604;2023-01-08T09:28:23;98686.81;;;8.76;100.00
16821;BME280;8527;49.740;6.604;2023-01-08T09:33:24;98677.06;;;8.76;100.00
16821;BME280;8527;49.740;6.604;2023-01-08T09:38:22;98679.69;;;8.76;100.00
16821;BME280;8527;49.740;6.604;2023-01-08T09:43:23;98667.03;;;8.71;100.00
16821;BME280;8527;49.740;6.604;2023-01-08T09:48:27;98671.84;;;8.68;100.00
16821;BME280;8527;49.740;6.604;2023-01-08T09:53:27;98668.19;;;8.69;100.00
16821;BME280;8527;49.740;6.604;2023-01-08T09:58:32;98672.06;;;8.66;100.00
16821;BME280;8527;49.740;6.604;2023-01-08T10:03:41;98672.47;;;8.70;100.00
16821;BME280;8527;49.740;6.604;2023-01-08T10:08:41;98669.03;;;8.69;100.00
16821;BME280;8527;49.740;6.604;2023-01-08T10:13:45;98657.91;;;8.74;100.00
16821;BME280;8527;49.740;6.604;2023-01-08T10:18:50;98655.91;;;8.76;100.00
16821;BME280;8527;49.740;6.604;2023-01-08T10:23:49;98645.78;;;8.80;100.00
16821;BME280;8527;49.740;6.604;2023-01-08T10:28:48;98650.41;;;8.78;100.00
16821;BME280;8527;49.740;6.604;2023-01-08T10:33:49;98638.03;;;8.78;100.00
16821;BME280;8527;49.740;6.604;2023-01-08T10:38:49;98635.19;;;8.80;100.00
16821;BME280;8527;49.740;6.604;2023-01-08T10:43:55;98636.22;;;8.79;100.00
16821;BME280;8527;49.740;6.604;2023-01-08T10:49:00;98620.69;;;8.76;100.00
16821;BME280;8527;49.740;6.604;2023-01-08T10:54:12;98626.19;;;8.74;100.00
16821;BME280;8527;49.740;6.604;2023-01-08T10:59:19;98615.84;;;8.79;100.00
16821;BME280;8527;49.740;6.604;2023-01-08T11:04:28;98599.34;;;8.92;100.00
16821;BME280;8527;49.740;6.604;2023-01-08T11:09:30;98603.16;;;8.90;100.00
16821;BME280;8527;49.740;6.604;2023-01-08T11:14:31;98596.75;;;8.99;100.00
16821;BME280;8527;49.740;6.604;2023-01-08T11:19:34;98588.47;;;9.24;100.00
16821;BME280;8527;49.740;6.604;2023-01-08T11:24:34;98589.84;;;9.20;100.00
16821;BME280;8527;49.740;6.604;2023-01-08T11:29:39;98582.34;;;9.23;100.00
16821;BME280;8527;49.740;6.604;2023-01-08T11:34:50;98587.75;;;9.15;100.00
16821;BME280;8527;49.740;6.604;2023-01-08T11:39:49;98586.88;;;9.08;100.00
16821;BME280;8527;49.740;6.604;2023-01-08T11:44:59;98573.59;;;9.01;100.00
16821;BME280;8527;49.740;6.604;2023-01-08T11:50:16;98565.72;;;9.08;100.00
16821;BME280;8527;49.740;6.604;2023-01-08T11:55:26;98557.41;;;9.11;100.00
16821;BME280;8527;49.740;6.604;2023-01-08T12:00:39;98544.78;;;9.13;100.00
16821;BME280;8527;49.740;6.604;2023-01-08T12:05:45;98539.63;;;9.05;100.00
16821;BME280;8527;49.740;6.604;2023-01-08T12:10:57;98528.53;;;8.94;100.00
16821;BME280;8527;49.740;6.604;2023-01-08T12:16:18;98535.09;;;8.98;100.00
16821;BME280;8527;49.740;6.604;2023-01-08T12:21:29;98534.47;;;8.96;100.00
16821;BME280;8527;49.740;6.604;2023-01-08T12:26:33;98523.63;;;9.13;100.00
16821;BME280;8527;49.740;6.604;2023-01-08T12:31:57;98521.81;;;9.13;100.00
16821;BME280;8527;49.740;6.604;2023-01-08T12:37:08;98531.38;;;9.14;100.00
16821;BME280;8527;49.740;6.604;2023-01-08T12:42:13;98517.88;;;9.09;98.13
16821;BME280;8527;49.740;6.604;2023-01-08T12:47:18;98531.44;;;8.99;97.11
16821;BME280;8527;49.740;6.604;2023-01-08T12:52:26;98521.88;;;8.98;95.93
16821;BME280;8527;49.740;6.604;2023-01-08T12:57:38;98513.13;;;8.98;95.73
16821;BME280;8527;49.740;6.604;2023-01-08T13:02:49;98512.53;;;9.03;95.85
16821;BME280;8527;49.740;6.604;2023-01-08T13:07:57;98486.00;;;9.18;95.16
16821;BME280;8527;49.740;6.604;2023-01-08T13:12:57;98485.94;;;9.33;95.20
16821;BME280;8527;49.740;6.604;2023-01-08T13:17:58;98472.09;;;9.31;96.34
16821;BME280;8527;49.740;6.604;2023-01-08T13:23:03;98473.31;;;9.35;96.49
16821;BME280;8527;49.740;6.604;2023-01-08T13:28:17;98462.50;;;9.29;95.79
16821;BME280;8527;49.740;6.604;2023-01-08T13:33:36;98444.75;;;9.23;95.62
16821;BME280;8527;49.740;6.604;2023-01-08T13:38:39;98436.00;;;9.23;95.40
16821;BME280;8527;49.740;6.604;2023-01-08T13:43:38;98438.44;;;9.24;95.81
16821;BME280;8527;49.740;6.604;2023-01-08T13:48:47;98422.69;;;9.16;95.00
16821;BME280;8527;49.740;6.604;2023-01-08T13:53:50;98421.31;;;9.20;95.24
16821;BME280;8527;49.740;6.604;2023-01-08T13:58:52;98416.59;;;9.15;94.96
16821;BME280;8527;49.740;6.604;2023-01-08T14:03:51;98410.09;;;9.18;95.37
16821;BME280;8527;49.740;6.604;2023-01-08T14:08:53;98405.00;;;9.17;94.45
16821;BME280;8527;49.740;6.604;2023-01-08T14:13:53;98404.16;;;9.16;95.31
16821;BME280;8527;49.740;6.604;2023-01-08T14:18:57;98396.66;;;9.20;95.01
16821;BME280;8527;49.740;6.604;2023-01-08T14:24:00;98395.88;;;9.19;95.41
16821;BME280;8527;49.740;6.604;2023-01-08T14:29:08;98395.03;;;9.19;95.18
16821;BME280;8527;49.740;6.604;2023-01-08T14:34:12;98399.53;;;9.18;97.24
16821;BME280;8527;49.740;6.604;2023-01-08T14:39:21;98390.81;;;9.24;97.22
16821;BME280;8527;49.740;6.604;2023-01-08T14:44:25;98376.06;;;9.15;94.80
16821;BME280;8527;49.740;6.604;2023-01-08T14:49:27;98373.91;;;9.25;95.09
16821;BME280;8527;49.740;6.604;2023-01-08T14:54:35;98367.41;;;9.28;94.65
16821;BME280;8527;49.740;6.604;2023-01-08T14:59:34;98361.91;;;9.23;94.28
16821;BME280;8527;49.740;6.604;2023-01-08T15:04:36;98350.91;;;9.26;94.81
16821;BME280;8527;49.740;6.604;2023-01-08T15:09:38;98345.19;;;9.22;94.26
16821;BME280;8527;49.740;6.604;2023-01-08T15:14:39;98333.75;;;9.15;94.97
16821;BME280;8527;49.740;6.604;2023-01-08T15:19:40;98331.50;;;9.12;95.36
16821;BME280;8527;49.740;6.604;2023-01-08T15:24:54;98328.66;;;9.13;96.84
16821;BME280;8527;49.740;6.604;2023-01-08T15:29:54;98322.31;;;9.08;97.62
16821;BME280;8527;49.740;6.604;2023-01-08T15:34:56;98325.75;;;9.08;96.12
16821;BME280;8527;49.740;6.604;2023-01-08T15:40:02;98319.28;;;9.11;97.42
16821;BME280;8527;49.740;6.604;2023-01-08T15:45:11;98323.53;;;9.05;97.34
16821;BME280;8527;49.740;6.604;2023-01-08T15:50:10;98306.44;;;9.08;96.05
16821;BME280;8527;49.740;6.604;2023-01-08T15:55:15;98309.91;;;9.08;97.01
16821;BME280;8527;49.740;6.604;2023-01-08T16:00:15;98306.22;;;9.09;98.09
16821;BME280;8527;49.740;6.604;2023-01-08T16:05:14;98302.16;;;9.07;98.39
16821;BME280;8527;49.740;6.604;2023-01-08T16:10:16;98301.75;;;9.03;97.18
16821;BME280;8527;49.740;6.604;2023-01-08T16:15:15;98302.50;;;8.97;95.85
16821;BME280;8527;49.740;6.604;2023-01-08T16:20:13;98297.06;;;9.05;95.46
16821;BME280;8527;49.740;6.604;2023-01-08T16:25:12;98283.03;;;9.05;95.24
16821;BME280;8527;49.740;6.604;2023-01-08T16:30:14;98279.97;;;9.01;95.69
16821;BME280;8527;49.740;6.604;2023-01-08T16:35:12;98270.75;;;8.97;95.08
16821;BME280;8527;49.740;6.604;2023-01-08T16:40:14;98265.91;;;9.00;95.36
16821;BME280;8527;49.740;6.604;2023-01-08T16:45:16;98252.63;;;8.94;96.11
16821;BME280;8527;49.740;6.604;2023-01-08T16:50:15;98249.34;;;8.85;95.51
16821;BME280;8527;49.740;6.604;2023-01-08T16:55:13;98253.19;;;8.82;97.74
16821;BME280;8527;49.740;6.604;2023-01-08T17:00:12;98236.91;;;8.79;96.31
16821;BME280;8527;49.740;6.604;2023-01-08T17:05:13;98230.22;;;8.83;95.85
16821;BME280;8527;49.740;6.604;2023-01-08T17:10:11;98216.75;;;8.78;96.03
16821;BME280;8527;49.740;6.604;2023-01-08T17:15:10;98205.91;;;8.66;97.00
16821;BME280;8527;49.740;6.604;2023-01-08T17:20:10;98213.59;;;8.54;96.86
16821;BME280;8527;49.740;6.604;2023-01-08T17:25:11;98207.00;;;8.50;98.07
16821;BME280;8527;49.740;6.604;2023-01-08T17:30:11;98197.91;;;8.52;97.92
16821;BME280;8527;49.740;6.604;2023-01-08T17:35:12;98189.91;;;8.45;98.19
16821;BME280;8527;49.740;6.604;2023-01-08T17:40:14;98180.75;;;8.41;97.45
16821;BME280;8527;49.740;6.604;2023-01-08T17:45:17;98180.13;;;8.46;97.35
16821;BME280;8527;49.740;6.604;2023-01-08T17:50:16;98173.44;;;8.43;98.39
16821;BME280;8527;49.740;6.604;2023-01-08T17:55:17;98162.84;;;8.43;97.63
16821;BME280;8527;49.740;6.604;2023-01-08T18:00:17;98156.75;;;8.43;97.44
16821;BME280;8527;49.740;6.604;2023-01-08T18:05:16;98165.34;;;8.52;97.49
16821;BME280;8527;49.740;6.604;2023-01-08T18:10:17;98158.25;;;8.52;97.70
16821;BME280;8527;49.740;6.604;2023-01-08T18:15:15;98164.09;;;8.48;97.83
16821;BME280;8527;49.740;6.604;2023-01-08T18:20:14;98160.44;;;8.49;97.75
16821;BME280;8527;49.740;6.604;2023-01-08T18:25:13;98145.03;;;8.52;97.96
16821;BME280;8527;49.740;6.604;2023-01-08T18:30:14;98137.31;;;8.51;97.59
16821;BME280;8527;49.740;6.604;2023-01-08T18:35:20;98118.97;;;8.49;97.81
16821;BME280;8527;49.740;6.604;2023-01-08T18:40:18;98108.22;;;8.51;97.81
16821;BME280;8527;49.740;6.604;2023-01-08T18:45:19;98091.56;;;8.50;97.99
16821;BME280;8527;49.740;6.604;2023-01-08T18:50:18;98080.34;;;8.48;97.99
16821;BME280;8527;49.740;6.604;2023-01-08T18:55:16;98073.44;;;8.47;98.16
16821;BME280;8527;49.740;6.604;2023-01-08T19:00:28;98071.78;;;8.46;98.21
16821;BME280;8527;49.740;6.604;2023-01-08T19:05:29;98061.84;;;8.48;98.18
16821;BME280;8527;49.740;6.604;2023-01-08T19:10:27;98058.38;;;8.48;97.97
16821;BME280;8527;49.740;6.604;2023-01-08T19:15:29;98053.34;;;8.53;98.22
16821;BME280;8527;49.740;6.604;2023-01-08T19:20:27;98056.34;;;8.50;98.23
16821;BME280;8527;49.740;6.604;2023-01-08T19:25:26;98046.19;;;8.47;98.08
16821;BME280;8527;49.740;6.604;2023-01-08T19:30:30;98051.66;;;8.45;98.32
16821;BME280;8527;49.740;6.604;2023-01-08T19:35:36;98044.38;;;8.47;98.39
16821;BME280;8527;49.740;6.604;2023-01-08T19:40:41;98045.34;;;8.46;98.40
16821;BME280;8527;49.740;6.604;2023-01-08T19:45:42;98043.94;;;8.43;99.79
16821;BME280;8527;49.740;6.604;2023-01-08T19:50:40;98033.75;;;8.40;100.00
16821;BME280;8527;49.740;6.604;2023-01-08T19:55:48;98029.88;;;8.36;100.00
16821;BME280;8527;49.740;6.604;2023-01-08T20:00:49;98019.09;;;8.31;100.00
16821;BME280;8527;49.740;6.604;2023-01-08T20:05:51;98011.56;;;8.28;100.00
16821;BME280;8527;49.740;6.604;2023-01-08T20:10:49;98011.34;;;8.29;100.00
16821;BME280;8527;49.740;6.604;2023-01-08T20:15:56;97997.94;;;8.24;100.00
16821;BME280;8527;49.740;6.604;2023-01-08T20:21:01;97996.31;;;8.23;100.00
16821;BME280;8527;49.740;6.604;2023-01-08T20:26:04;97978.44;;;8.25;100.00
16821;BME280;8527;49.740;6.604;2023-01-08T20:31:07;97961.75;;;8.25;100.00
16821;BME280;8527;49.740;6.604;2023-01-08T20:36:08;97948.53;;;8.18;100.00
16821;BME280;8527;49.740;6.604;2023-01-08T20:41:07;97947.72;;;8.18;100.00
16821;BME280;8527;49.740;6.604;2023-01-08T20:46:09;97934.88;;;8.14;100.00
16821;BME280;8527;49.740;6.604;2023-01-08T20:51:10;97926.00;;;8.22;100.00
16821;BME280;8527;49.740;6.604;2023-01-08T20:56:13;97920.28;;;8.19;100.00
16821;BME280;8527;49.740;6.604;2023-01-08T21:01:17;97918.84;;;8.16;100.00
16821;BME280;8527;49.740;6.604;2023-01-08T21:06:23;97912.34;;;8.12;100.00
16821;BME280;8527;49.740;6.604;2023-01-08T21:11:26;97913.16;;;8.12;100.00
16821;BME280;8527;49.740;6.604;2023-01-08T21:16:29;97897.88;;;8.08;100.00
16821;BME280;8527;49.740;6.604;2023-01-08T21:21:34;97895.66;;;8.11;100.00
16821;BME280;8527;49.740;6.604;2023-01-08T21:26:33;97894.66;;;8.12;100.00
16821;BME280;8527;49.740;6.604;2023-01-08T21:31:36;97889.19;;;8.14;100.00
16821;BME280;8527;49.740;6.604;2023-01-08T21:36:45;97883.28;;;8.12;100.00
16821;BME280;8527;49.740;6.604;2023-01-08T21:41:49;97866.84;;;8.10;100.00
16821;BME280;8527;49.740;6.604;2023-01-08T21:47:11;97856.47;;;8.15;100.00
16821;BME280;8527;49.740;6.604;2023-01-08T21:52:11;97839.63;;;8.16;100.00
16821;BME280;8527;49.740;6.604;2023-01-08T21:57:21;97828.63;;;8.19;100.00
16821;BME280;8527;49.740;6.604;2023-01-08T22:02:27;97818.66;;;8.14;100.00
16821;BME280;8527;49.740;6.604;2023-01-08T22:07:27;97814.22;;;8.15;100.00
16821;BME280;8527;49.740;6.604;2023-01-08T22:12:29;97814.81;;;8.10;100.00
16821;BME280;8527;49.740;6.604;2023-01-08T22:17:30;97834.28;;;7.96;100.00
16821;BME280;8527;49.740;6.604;2023-01-08T22:22:31;97841.56;;;7.80;100.00
16821;BME280;8527;49.740;6.604;2023-01-08T22:27:29;97853.31;;;7.78;100.00
16821;BME280;8527;49.740;6.604;2023-01-08T22:32:30;97868.25;;;7.57;100.00
16821;BME280;8527;49.740;6.604;2023-01-08T22:37:32;97876.94;;;7.44;100.00
16821;BME280;8527;49.740;6.604;2023-01-08T22:42:31;97892.31;;;7.40;100.00
16821;BME280;8527;49.740;6.604;2023-01-08T22:47:32;97887.81;;;7.27;100.00
16821;BME280;8527;49.740;6.604;2023-01-08T22:52:31;97895.41;;;7.15;100.00
16821;BME280;8527;49.740;6.604;2023-01-08T22:57:30;97897.66;;;7.18;100.00
16821;BME280;8527;49.740;6.604;2023-01-08T23:02:28;97898.69;;;7.17;100.00
16821;BME280;8527;49.740;6.604;2023-01-08T23:07:29;97883.91;;;7.23;100.00
16821;BME280;8527;49.740;6.604;2023-01-08T23:12:28;97880.84;;;7.20;100.00
16821;BME280;8527;49.740;6.604;2023-01-08T23:17:28;97878.41;;;7.18;100.00
16821;BME280;8527;49.740;6.604;2023-01-08T23:22:32;97877.97;;;7.14;100.00
16821;BME280;8527;49.740;6.604;2023-01-08T23:27:33;97882.06;;;7.17;100.00
16821;BME280;8527;49.740;6.604;2023-01-08T23:32:32;97884.72;;;7.24;100.00
16821;BME280;8527;49.740;6.604;2023-01-08T23:37:33;97895.69;;;7.21;100.00
16821;BME280;8527;49.740;6.604;2023-01-08T23:42:32;97893.19;;;7.12;100.00
16821;BME280;8527;49.740;6.604;2023-01-08T23:47:31;97879.63;;;7.22;100.00
16821;BME280;8527;49.740;6.604;2023-01-08T23:52:29;97875.09;;;7.09;100.00
16821;BME280;8527;49.740;6.604;2023-01-08T23:57:30;97871.06;;;7.13;100.00
